createdAt,value
2018-03-27T00:00:06.963Z,20.70
2018-03-27T00:02:34.678Z,20.60
2018-03-27T00:05:02.483Z,20.50
2018-03-27T00:07:30.286Z,20.50
2018-03-27T00:09:58.019Z,20.60
2018-03-27T00:12:26.047Z,20.70
2018-03-27T00:14:53.860Z,20.90
2018-03-27T00:17:21.628Z,21.00
2018-03-27T00:19:49.342Z,21.20
2018-03-27T00:22:17.047Z,21.40
2018-03-27T00:24:44.786Z,21.50
2018-03-27T00:27:12.075Z,21.50
2018-03-27T00:29:51.646Z,21.60
2018-03-27T00:32:31.215Z,21.60
2018-03-27T00:35:10.649Z,21.50
2018-03-27T00:37:50.148Z,21.40
2018-03-27T00:40:29.537Z,21.00
2018-03-27T00:42:57.300Z,20.90
2018-03-27T00:45:25.060Z,20.80
2018-03-27T00:47:52.865Z,20.70
2018-03-27T00:50:20.587Z,20.70
2018-03-27T00:52:48.300Z,20.80
2018-03-27T00:55:16.012Z,20.60
2018-03-27T00:57:43.827Z,20.50
2018-03-27T01:00:11.662Z,20.70
2018-03-27T01:02:39.433Z,20.70
2018-03-27T01:05:09.962Z,20.70
2018-03-27T01:07:37.757Z,20.70
2018-03-27T01:10:05.513Z,20.70
2018-03-27T01:12:33.243Z,20.50
2018-03-27T01:15:00.997Z,20.50
2018-03-27T01:17:28.758Z,20.70
2018-03-27T01:19:57.297Z,20.70
2018-03-27T01:22:25.146Z,20.70
2018-03-27T01:24:52.927Z,20.60
2018-03-27T01:27:20.724Z,20.40
2018-03-27T01:29:49.210Z,20.20
2018-03-27T01:32:17.038Z,20.20
2018-03-27T01:34:44.798Z,20.10
2018-03-27T01:37:12.590Z,20.00
2018-03-27T01:39:40.365Z,20.00
2018-03-27T01:42:08.193Z,19.90
2018-03-27T01:44:35.967Z,19.80
2018-03-27T01:47:03.717Z,19.90
2018-03-27T01:49:31.531Z,19.90
2018-03-27T01:52:00.045Z,19.80
2018-03-27T01:54:27.747Z,19.80
2018-03-27T01:56:55.549Z,19.90
2018-03-27T01:59:23.271Z,20.00
2018-03-27T02:01:51.056Z,20.00
2018-03-27T02:04:18.802Z,19.90
2018-03-27T02:06:46.549Z,20.10
2018-03-27T02:09:14.303Z,20.20
2018-03-27T02:11:48.362Z,20.00
2018-03-27T02:14:21.633Z,20.00
2018-03-27T02:16:55.046Z,19.80
2018-03-27T02:19:28.404Z,19.80
2018-03-27T02:21:56.444Z,19.30
2018-03-27T02:24:26.920Z,19.30
2018-03-27T02:26:54.630Z,18.80
2018-03-27T02:29:22.548Z,19.20
2018-03-27T02:31:51.268Z,19.50
2018-03-27T02:34:18.985Z,19.40
2018-03-27T02:36:46.803Z,19.50
2018-03-27T02:39:14.604Z,19.50
2018-03-27T02:41:42.405Z,19.40
2018-03-27T02:44:10.214Z,19.20
2018-03-27T02:46:37.982Z,19.50
2018-03-27T02:49:05.765Z,19.70
2018-03-27T02:51:33.536Z,19.80
2018-03-27T02:54:01.387Z,20.00
2018-03-27T02:56:29.183Z,20.30
2018-03-27T02:58:57.036Z,20.30
2018-03-27T03:01:24.831Z,20.40
2018-03-27T03:03:52.635Z,20.40
2018-03-27T03:06:20.466Z,20.10
2018-03-27T03:08:48.235Z,19.90
2018-03-27T03:11:15.983Z,19.70
2018-03-27T03:13:43.680Z,19.60
2018-03-27T03:16:11.422Z,19.60
2018-03-27T03:18:39.126Z,19.60
2018-03-27T03:21:06.923Z,19.60
2018-03-27T03:23:34.686Z,19.40
2018-03-27T03:26:02.400Z,19.20
2018-03-27T03:28:30.207Z,18.90
2018-03-27T03:30:57.997Z,18.60
2018-03-27T03:33:25.858Z,18.50
2018-03-27T03:35:53.565Z,18.70
2018-03-27T03:38:21.348Z,18.90
2018-03-27T03:40:49.093Z,18.90
2018-03-27T03:43:16.873Z,18.80
2018-03-27T03:45:44.616Z,18.80
2018-03-27T03:48:12.385Z,18.80
2018-03-27T03:50:40.096Z,18.80
2018-03-27T03:53:07.931Z,18.80
2018-03-27T03:55:35.749Z,18.80
2018-03-27T03:58:03.456Z,18.90
2018-03-27T04:00:31.251Z,18.90
2018-03-27T04:02:58.999Z,18.90
2018-03-27T04:05:26.781Z,18.90
2018-03-27T04:07:54.567Z,18.90
2018-03-27T04:10:22.374Z,18.90
2018-03-27T04:12:50.236Z,18.80
2018-03-27T04:15:17.948Z,18.90
2018-03-27T04:17:45.738Z,18.90
2018-03-27T04:20:13.494Z,18.90
2018-03-27T04:22:41.276Z,19.10
2018-03-27T04:25:09.227Z,19.10
2018-03-27T04:27:36.986Z,19.10
2018-03-27T04:30:04.716Z,19.10
2018-03-27T04:32:32.473Z,19.00
2018-03-27T04:35:00.293Z,19.00
2018-03-27T04:37:28.069Z,19.00
2018-03-27T04:39:55.853Z,19.00
2018-03-27T04:42:23.602Z,19.20
2018-03-27T04:44:51.376Z,19.20
2018-03-27T04:47:19.093Z,19.30
2018-03-27T04:49:46.872Z,19.20
2018-03-27T04:52:14.623Z,19.30
2018-03-27T04:54:42.380Z,19.40
2018-03-27T04:57:10.291Z,19.50
2018-03-27T05:02:20.545Z,19.50
2018-03-27T05:04:48.331Z,19.50
2018-03-27T05:07:16.095Z,19.50
2018-03-27T05:09:43.851Z,19.50
2018-03-27T05:12:11.642Z,19.70
2018-03-27T05:14:39.430Z,19.60
2018-03-27T05:17:08.234Z,19.40
2018-03-27T05:19:36.023Z,19.50
2018-03-27T05:22:03.792Z,19.50
2018-03-27T05:24:31.514Z,19.50
2018-03-27T05:26:59.333Z,19.60
2018-03-27T05:29:27.117Z,19.60
2018-03-27T05:31:54.871Z,19.50
2018-03-27T05:34:22.671Z,19.60
2018-03-27T05:36:50.419Z,19.60
2018-03-27T05:39:18.196Z,19.60
2018-03-27T05:41:45.991Z,19.60
2018-03-27T05:44:13.798Z,19.60
2018-03-27T05:46:41.564Z,19.60
2018-03-27T05:49:09.302Z,19.60
2018-03-27T05:51:37.107Z,19.60
2018-03-27T05:54:04.814Z,19.60
2018-03-27T05:56:32.564Z,19.60
2018-03-27T05:59:00.330Z,19.60
2018-03-27T06:01:28.048Z,19.60
2018-03-27T06:03:55.805Z,19.70
2018-03-27T06:06:23.510Z,19.70
2018-03-27T06:08:52.044Z,19.60
2018-03-27T06:11:19.842Z,19.60
2018-03-27T06:13:47.645Z,19.60
2018-03-27T06:16:15.435Z,19.60
2018-03-27T06:18:43.200Z,19.60
2018-03-27T06:21:11.038Z,19.60
2018-03-27T06:23:39.560Z,19.70
2018-03-27T06:26:07.281Z,19.60
2018-03-27T06:28:35.011Z,19.60
2018-03-27T06:31:02.810Z,19.50
2018-03-27T06:33:30.532Z,19.60
2018-03-27T06:35:58.359Z,19.70
2018-03-27T06:38:26.172Z,19.60
2018-03-27T06:40:53.934Z,19.60
2018-03-27T06:43:21.712Z,19.80
2018-03-27T06:45:49.473Z,19.90
2018-03-27T06:48:17.244Z,19.80
2018-03-27T06:50:45.039Z,19.60
2018-03-27T06:53:12.887Z,19.70
2018-03-27T06:55:40.763Z,19.70
2018-03-27T06:58:08.573Z,19.80
2018-03-27T07:00:36.357Z,19.80
2018-03-27T07:03:04.062Z,19.80
2018-03-27T07:05:31.885Z,19.90
2018-03-27T07:07:59.690Z,19.90
2018-03-27T07:10:27.448Z,19.90
2018-03-27T07:12:55.181Z,19.80
2018-03-27T07:15:22.909Z,19.90
2018-03-27T07:17:50.693Z,19.90
2018-03-27T07:20:18.441Z,19.80
2018-03-27T07:22:46.291Z,19.60
2018-03-27T07:25:14.022Z,19.60
2018-03-27T07:27:41.858Z,19.60
2018-03-27T07:30:09.653Z,19.60
2018-03-27T07:32:37.370Z,19.60
2018-03-27T07:35:05.251Z,19.60
2018-03-27T07:37:33.003Z,19.60
2018-03-27T07:40:00.771Z,19.60
2018-03-27T07:42:28.473Z,19.50
2018-03-27T07:44:56.179Z,19.40
2018-03-27T07:47:23.990Z,19.40
2018-03-27T07:49:51.725Z,19.40
2018-03-27T07:52:19.458Z,19.40
2018-03-27T07:54:47.250Z,19.40
2018-03-27T07:57:14.984Z,19.40
2018-03-27T07:59:42.727Z,19.40
2018-03-27T08:02:11.214Z,19.40
2018-03-27T08:04:38.939Z,19.40
2018-03-27T08:07:06.726Z,19.60
2018-03-27T08:09:34.494Z,19.60
2018-03-27T08:12:02.288Z,19.60
2018-03-27T08:14:29.980Z,19.60
2018-03-27T08:16:57.696Z,19.70
2018-03-27T08:19:25.504Z,19.60
2018-03-27T08:21:53.322Z,19.50
2018-03-27T08:24:21.088Z,19.50
2018-03-27T08:26:48.820Z,19.50
2018-03-27T08:29:17.395Z,19.30
2018-03-27T08:31:45.163Z,19.20
2018-03-27T08:34:12.943Z,19.20
2018-03-27T08:36:40.705Z,19.20
2018-03-27T08:39:08.798Z,19.20
2018-03-27T08:41:36.593Z,19.20
2018-03-27T08:44:04.411Z,19.20
2018-03-27T08:46:32.199Z,19.20
2018-03-27T08:48:59.923Z,19.30
2018-03-27T08:51:27.733Z,19.40
2018-03-27T08:53:55.520Z,19.60
2018-03-27T08:56:23.306Z,19.60
2018-03-27T08:58:51.120Z,19.80
2018-03-27T09:01:18.901Z,19.70
2018-03-27T09:03:46.666Z,19.70
2018-03-27T09:06:14.750Z,19.70
2018-03-27T09:08:42.569Z,19.80
2018-03-27T09:11:10.358Z,19.90
2018-03-27T09:13:38.188Z,20.30
2018-03-27T09:16:05.908Z,20.50
2018-03-27T09:18:33.694Z,20.60
2018-03-27T09:21:01.476Z,21.00
2018-03-27T09:23:29.189Z,20.90
2018-03-27T09:25:56.979Z,20.60
2018-03-27T09:28:24.711Z,20.30
2018-03-27T09:30:52.508Z,20.10
2018-03-27T09:33:21.268Z,20.00
2018-03-27T09:35:49.001Z,20.00
2018-03-27T09:38:16.724Z,19.90
2018-03-27T09:40:44.528Z,20.00
2018-03-27T09:43:12.280Z,20.10
2018-03-27T09:45:40.001Z,20.20
2018-03-27T09:48:07.758Z,20.30
2018-03-27T09:50:35.529Z,20.20
2018-03-27T09:53:03.256Z,20.20
2018-03-27T09:55:31.040Z,20.20
2018-03-27T09:57:59.559Z,20.20
2018-03-27T10:00:33.665Z,20.10
2018-03-27T10:03:01.411Z,20.20
2018-03-27T10:05:29.892Z,20.10
2018-03-27T10:07:57.663Z,20.10
2018-03-27T10:10:25.405Z,20.20
2018-03-27T10:12:53.225Z,20.20
2018-03-27T10:15:21.046Z,20.40
2018-03-27T10:17:48.810Z,20.80
2018-03-27T10:20:16.603Z,21.00
2018-03-27T10:22:44.392Z,20.80
2018-03-27T10:25:12.148Z,21.10
2018-03-27T10:27:39.912Z,21.10
2018-03-27T10:30:07.769Z,21.00
2018-03-27T10:32:36.328Z,21.20
2018-03-27T10:35:04.125Z,21.20
2018-03-27T10:37:31.918Z,21.10
2018-03-27T10:39:59.682Z,21.30
2018-03-27T10:42:27.400Z,21.20
2018-03-27T10:44:55.216Z,21.30
2018-03-27T10:47:22.931Z,21.20
2018-03-27T10:49:50.717Z,21.10
2018-03-27T10:52:18.462Z,21.00
2018-03-27T10:54:46.241Z,21.00
2018-03-27T10:57:13.970Z,21.00
2018-03-27T10:59:41.792Z,20.90
2018-03-27T11:02:09.594Z,20.80
2018-03-27T11:04:37.446Z,20.70
2018-03-27T11:07:05.179Z,20.60
2018-03-27T11:09:33.770Z,20.60
2018-03-27T11:12:01.571Z,20.60
2018-03-27T11:14:29.329Z,20.60
2018-03-27T11:16:57.245Z,20.50
2018-03-27T11:19:25.064Z,20.40
2018-03-27T11:21:54.594Z,20.30
2018-03-27T11:24:22.310Z,20.40
2018-03-27T11:26:50.860Z,20.20
2018-03-27T11:29:19.448Z,20.30
2018-03-27T11:31:47.333Z,20.20
2018-03-27T11:34:15.094Z,20.30
2018-03-27T11:36:43.031Z,20.40
2018-03-27T11:39:10.857Z,20.40
2018-03-27T11:41:38.588Z,20.50
2018-03-27T11:44:06.441Z,20.50
2018-03-27T11:46:34.202Z,20.60
2018-03-27T11:49:01.994Z,20.70
2018-03-27T11:51:29.801Z,20.70
2018-03-27T11:53:57.755Z,20.70
2018-03-27T11:56:25.652Z,20.80
2018-03-27T11:58:53.486Z,20.90
2018-03-27T12:01:21.218Z,20.90
2018-03-27T12:03:49.133Z,20.90
2018-03-27T12:06:17.001Z,21.00
2018-03-27T12:08:45.599Z,21.00
2018-03-27T12:11:13.999Z,21.00
2018-03-27T12:13:42.105Z,21.10
2018-03-27T12:16:10.000Z,21.10
2018-03-27T12:18:37.798Z,21.20
2018-03-27T12:21:05.554Z,21.10
2018-03-27T12:23:33.334Z,21.20
2018-03-27T12:26:01.308Z,21.40
2018-03-27T12:28:30.090Z,21.50
2018-03-27T12:30:57.893Z,21.40
2018-03-27T12:33:25.801Z,21.40
2018-03-27T12:35:53.571Z,21.30
2018-03-27T12:38:21.337Z,21.30
2018-03-27T12:40:49.539Z,21.20
2018-03-27T12:43:17.380Z,21.20
2018-03-27T12:45:45.171Z,21.10
2018-03-27T12:48:13.138Z,21.10
2018-03-27T12:50:40.944Z,21.20
2018-03-27T12:53:08.777Z,21.20
2018-03-27T12:55:37.525Z,21.30
2018-03-27T12:58:05.376Z,21.20
2018-03-27T13:00:33.126Z,21.40
2018-03-27T13:03:01.012Z,21.40
2018-03-27T13:05:28.802Z,21.40
2018-03-27T13:07:56.562Z,21.40
2018-03-27T13:10:24.350Z,21.50
2018-03-27T13:12:52.103Z,21.60
2018-03-27T13:15:19.869Z,21.60
2018-03-27T13:17:47.753Z,21.70
2018-03-27T13:20:15.623Z,21.80
2018-03-27T13:22:43.727Z,22.00
2018-03-27T13:25:12.298Z,22.00
2018-03-27T13:27:40.008Z,22.00
2018-03-27T13:30:07.873Z,22.00
2018-03-27T13:32:35.671Z,22.00
2018-03-27T13:35:03.488Z,22.20
2018-03-27T13:37:31.290Z,22.20
2018-03-27T13:39:59.033Z,22.20
2018-03-27T13:42:26.840Z,22.20
2018-03-27T13:44:54.624Z,22.40
2018-03-27T13:47:22.469Z,22.40
2018-03-27T13:49:50.189Z,22.40
2018-03-27T13:52:17.943Z,22.30
2018-03-27T13:54:46.523Z,22.30
2018-03-27T13:57:14.333Z,22.30
2018-03-27T13:59:42.197Z,22.40
2018-03-27T14:02:09.982Z,22.40
2018-03-27T14:04:37.713Z,22.50
2018-03-27T14:07:05.536Z,22.60
2018-03-27T14:09:33.254Z,22.70
2018-03-27T14:12:01.060Z,22.80
2018-03-27T14:14:28.844Z,22.70
2018-03-27T14:16:56.638Z,22.80
2018-03-27T14:19:25.114Z,22.90
2018-03-27T14:21:53.678Z,22.90
2018-03-27T14:24:21.471Z,22.80
2018-03-27T14:26:49.962Z,22.90
2018-03-27T14:29:17.766Z,22.90
2018-03-27T14:31:45.485Z,22.90
2018-03-27T14:34:13.984Z,23.00
2018-03-27T14:36:41.775Z,22.90
2018-03-27T14:39:09.688Z,23.00
2018-03-27T14:41:38.194Z,23.10
2018-03-27T14:44:06.711Z,23.10
2018-03-27T14:46:34.500Z,23.00
2018-03-27T14:49:02.290Z,22.90
2018-03-27T14:51:30.118Z,22.90
2018-03-27T14:53:57.914Z,22.90
2018-03-27T14:56:25.640Z,22.80
2018-03-27T14:58:53.356Z,22.70
2018-03-27T15:01:21.979Z,22.60
2018-03-27T15:03:49.731Z,22.60
2018-03-27T15:06:17.522Z,22.60
2018-03-27T15:08:45.620Z,22.60
2018-03-27T15:11:13.417Z,22.70
2018-03-27T15:13:41.151Z,22.60
2018-03-27T15:16:08.902Z,22.60
2018-03-27T15:18:36.944Z,22.70
2018-03-27T15:21:04.786Z,22.60
2018-03-27T15:23:32.563Z,22.60
2018-03-27T15:26:00.385Z,22.70
2018-03-27T15:28:28.147Z,22.60
2018-03-27T15:30:55.912Z,22.60
2018-03-27T15:33:23.669Z,22.60
2018-03-27T15:35:51.403Z,22.50
2018-03-27T15:38:19.139Z,22.50
2018-03-27T15:40:46.970Z,22.50
2018-03-27T15:43:14.728Z,22.50
2018-03-27T15:45:42.483Z,22.50
2018-03-27T15:48:10.231Z,22.50
2018-03-27T15:50:37.989Z,22.60
2018-03-27T15:53:05.793Z,22.60
2018-03-27T15:55:33.639Z,22.60
2018-03-27T15:58:02.119Z,22.60
2018-03-27T16:00:29.834Z,22.60
2018-03-27T16:02:57.885Z,22.70
2018-03-27T16:05:26.879Z,22.70
2018-03-27T16:07:56.226Z,22.60
2018-03-27T16:10:26.416Z,22.60
2018-03-27T16:12:54.428Z,22.50
2018-03-27T16:15:24.137Z,22.70
2018-03-27T16:17:54.458Z,22.60
2018-03-27T16:20:22.466Z,22.60
2018-03-27T16:22:52.515Z,22.60
2018-03-27T16:25:22.890Z,22.50
2018-03-27T16:27:52.562Z,22.50
2018-03-27T16:30:22.264Z,22.60
2018-03-27T16:32:52.446Z,22.60
2018-03-27T16:35:21.506Z,22.60
2018-03-27T16:37:49.724Z,22.60
2018-03-27T16:40:17.547Z,22.50
2018-03-27T16:42:46.050Z,22.60
2018-03-27T16:45:15.444Z,22.60
2018-03-27T16:47:45.550Z,22.50
2018-03-27T16:50:14.067Z,22.50
2018-03-27T16:52:42.335Z,22.60
2018-03-27T16:55:11.273Z,22.50
2018-03-27T16:57:39.123Z,22.60
2018-03-27T17:00:07.259Z,22.60
2018-03-27T17:02:35.933Z,22.50
2018-03-27T17:05:04.542Z,22.50
2018-03-27T17:07:34.393Z,22.40
2018-03-27T17:10:03.889Z,22.50
2018-03-27T17:12:33.003Z,22.60
2018-03-27T17:15:00.779Z,22.50
2018-03-27T17:17:29.290Z,22.30
2018-03-27T17:19:57.141Z,22.30
2018-03-27T17:22:25.957Z,22.30
2018-03-27T17:24:53.783Z,22.20
2018-03-27T17:27:21.651Z,22.20
2018-03-27T17:29:49.679Z,22.10
2018-03-27T17:32:17.548Z,22.00
2018-03-27T17:34:45.594Z,22.00
2018-03-27T17:37:13.438Z,22.00
2018-03-27T17:39:41.920Z,21.80
2018-03-27T17:42:09.737Z,21.80
2018-03-27T17:44:37.906Z,21.90
2018-03-27T17:47:05.743Z,21.80
2018-03-27T17:49:34.342Z,21.80
2018-03-27T17:52:02.134Z,21.80
2018-03-27T17:54:29.888Z,21.80
2018-03-27T17:56:57.716Z,21.80
2018-03-27T17:59:25.518Z,21.70
2018-03-27T18:01:53.546Z,21.70
2018-03-27T18:04:21.354Z,21.80
2018-03-27T18:06:50.073Z,21.80
2018-03-27T18:09:18.168Z,21.80
2018-03-27T18:11:46.022Z,21.80
2018-03-27T18:14:13.789Z,21.60
2018-03-27T18:16:41.918Z,21.80
2018-03-27T18:19:10.006Z,21.80
2018-03-27T18:21:38.435Z,21.80
2018-03-27T18:24:06.719Z,21.80
2018-03-27T18:26:34.472Z,21.70
2018-03-27T18:29:02.372Z,21.60
2018-03-27T18:31:30.161Z,21.60
2018-03-27T18:33:57.927Z,21.50
2018-03-27T18:36:25.807Z,21.50
2018-03-27T18:38:53.596Z,21.40
2018-03-27T18:41:23.613Z,21.40
2018-03-27T18:43:51.420Z,21.30
2018-03-27T18:46:19.169Z,21.20
2018-03-27T18:48:47.001Z,21.20
2018-03-27T18:51:14.799Z,21.10
2018-03-27T18:53:42.512Z,21.10
2018-03-27T18:56:10.286Z,21.00
2018-03-27T18:58:38.722Z,20.90
2018-03-27T19:01:06.511Z,20.90
2018-03-27T19:03:35.167Z,20.80
2018-03-27T19:06:04.441Z,20.80
2018-03-27T19:08:32.189Z,20.80
2018-03-27T19:11:03.088Z,20.80
2018-03-27T19:13:31.041Z,20.80
2018-03-27T19:16:01.025Z,21.50
2018-03-27T19:18:29.146Z,20.70
2018-03-27T19:21:01.900Z,20.70
2018-03-27T19:23:29.651Z,20.70
2018-03-27T19:26:06.897Z,20.60
2018-03-27T19:28:42.515Z,20.70
2018-03-27T19:31:11.364Z,20.80
2018-03-27T19:33:43.646Z,20.50
2018-03-27T19:36:12.138Z,20.50
2018-03-27T19:38:40.809Z,20.50
2018-03-27T19:41:08.572Z,20.40
2018-03-27T19:43:37.342Z,20.40
2018-03-27T19:46:06.436Z,20.40
2018-03-27T19:48:39.123Z,20.30
2018-03-27T19:51:08.538Z,20.30
2018-03-27T19:53:37.924Z,20.20
2018-03-27T19:56:09.179Z,20.50
2018-03-27T19:58:39.143Z,20.20
2018-03-27T20:01:08.896Z,20.20
2018-03-27T20:03:46.871Z,20.20
2018-03-27T20:06:16.826Z,20.20
2018-03-27T20:08:47.780Z,20.20
2018-03-27T20:11:16.448Z,20.10
2018-03-27T20:13:49.948Z,20.10
2018-03-27T20:16:18.973Z,20.10
2018-03-27T20:18:49.800Z,20.30
2018-03-27T20:21:18.038Z,20.20
2018-03-27T20:23:49.815Z,20.10
2018-03-27T20:26:29.418Z,20.00
2018-03-27T20:28:57.364Z,20.20
2018-03-27T20:31:25.059Z,20.30
2018-03-27T20:33:53.769Z,20.10
2018-03-27T20:36:22.392Z,20.10
2018-03-27T20:38:52.234Z,19.80
2018-03-27T20:41:21.716Z,19.80
2018-03-27T20:43:49.445Z,19.80
2018-03-27T20:58:30.460Z,19.60
2018-03-27T21:00:58.246Z,19.80
2018-03-27T21:03:26.028Z,19.60
2018-03-27T21:05:54.547Z,19.60
2018-03-27T21:08:22.295Z,19.80
2018-03-27T21:10:51.250Z,19.60
2018-03-27T21:13:19.034Z,19.70
2018-03-27T21:15:48.978Z,19.70
2018-03-27T21:18:17.524Z,19.70
2018-03-27T21:20:45.271Z,19.80
2018-03-27T21:23:13.086Z,19.70
2018-03-27T21:25:42.711Z,19.70
2018-03-27T21:28:11.526Z,19.90
2018-03-27T21:30:41.691Z,19.70
2018-03-27T21:33:12.673Z,19.60
2018-03-27T21:35:43.075Z,19.50
2018-03-27T21:38:12.230Z,19.50
2018-03-27T21:40:42.561Z,19.50
2018-03-27T21:43:12.399Z,19.50
2018-03-27T21:45:40.948Z,19.50
2018-03-27T21:48:11.463Z,19.50
2018-03-27T21:50:40.875Z,19.50
2018-03-27T21:53:08.760Z,19.50
2018-03-27T21:55:36.588Z,19.60
2018-03-27T21:58:04.395Z,19.60
2018-03-27T22:00:32.202Z,19.40
2018-03-27T22:03:00.007Z,19.40
2018-03-27T22:05:27.742Z,19.40
2018-03-27T22:07:56.126Z,19.30
2018-03-27T22:10:24.654Z,19.30
2018-03-27T22:12:53.219Z,19.40
2018-03-27T22:15:20.929Z,19.30
2018-03-27T22:17:48.707Z,19.20
2018-03-27T22:20:17.443Z,19.40
2018-03-27T22:22:45.212Z,19.30
2018-03-27T22:25:13.009Z,19.30
2018-03-27T22:27:41.014Z,19.30
2018-03-27T22:30:09.490Z,19.20
2018-03-27T22:32:37.292Z,19.20
2018-03-27T22:35:05.029Z,19.10
2018-03-27T22:37:32.836Z,19.00
2018-03-27T22:40:00.575Z,19.00
2018-03-27T22:42:28.340Z,19.10
2018-03-27T22:44:56.043Z,19.10
2018-03-27T22:47:23.842Z,19.00
2018-03-27T22:49:51.664Z,19.00
2018-03-27T22:52:19.414Z,19.00
2018-03-27T22:54:47.212Z,19.00
2018-03-27T22:57:14.972Z,18.90
2018-03-27T22:59:42.780Z,18.90
2018-03-27T23:02:10.488Z,18.90
2018-03-27T23:04:38.200Z,18.80
2018-03-27T23:07:05.990Z,18.90
2018-03-27T23:09:33.726Z,18.80
2018-03-27T23:12:01.439Z,18.80
2018-03-27T23:14:29.203Z,18.80
2018-03-27T23:16:57.706Z,18.70
2018-03-27T23:19:25.968Z,18.60
2018-03-27T23:21:54.484Z,18.20
2018-03-27T23:24:22.291Z,18.10
2018-03-27T23:26:50.250Z,18.10
2018-03-27T23:29:18.169Z,18.00
2018-03-27T23:31:45.964Z,17.90
2018-03-27T23:34:13.762Z,17.80
2018-03-27T23:36:41.491Z,17.70
2018-03-27T23:39:09.245Z,17.60
2018-03-27T23:41:36.998Z,17.60
2018-03-27T23:44:04.712Z,17.60
2018-03-27T23:46:32.434Z,17.70
2018-03-27T23:49:00.234Z,17.70
2018-03-27T23:51:27.959Z,17.70
2018-03-27T23:53:55.735Z,17.80
2018-03-27T23:56:23.494Z,17.80
2018-03-27T23:58:51.278Z,17.70
